Time;durP1;ratioP1;P1;durP2;ratioP2;P2;SDS_P1;SDS_P2;PMS_P1;PMS_P2;Temp;Humidity;BMP_temperature;BMP_pressure;BME280_temperature;BME280_humidity;BME280_pressure;Samples;Min_cycle;Max_cycle;Signal;HPM_P1;HPM_P2
2023/05/31 00:03:00;;;;;;;12.45;3.55;;;;;;;;;;6308035;22;20198;-93
2023/05/31 00:06:05;;;;;;;8.38;3.47;;;;;;;;;;6306839;22;20229;-92
2023/05/31 00:09:11;;;;;;;10.27;3.80;;;;;;;;;;6326874;22;20172;-92
2023/05/31 00:12:16;;;;;;;21.08;3.78;;;;;;;;;;6324857;22;20215;-90
2023/05/31 00:15:22;;;;;;;32.25;4.30;;;;;;;;;;6306586;22;20169;-93
2023/05/31 00:18:43;;;;;;;13.57;4.07;;;;;;;;;;6308951;22;20169;-92
2023/05/31 00:21:48;;;;;;;8.65;3.97;;;;;;;;;;6324928;22;20174;-90
2023/05/31 00:25:15;;;;;;;7.85;3.80;;;;;;;;;;6325753;22;20204;-93
2023/05/31 00:32:14;;;;;;;9.90;3.50;;;;;;;;;;6305612;22;20166;-91
2023/05/31 00:35:22;;;;;;;43.95;15.15;;;;;;;;;;6305083;22;20160;-89
2023/05/31 00:38:28;;;;;;;75.68;13.60;;;;;;;;;;6321321;22;20239;-90
2023/05/31 00:41:33;;;;;;;9.00;3.35;;;;;;;;;;6303346;22;20165;-93
2023/05/31 00:44:38;;;;;;;13.85;3.72;;;;;;;;;;6304092;22;20212;-92
2023/05/31 00:47:43;;;;;;;10.23;3.90;;;;;;;;;;6304243;22;20196;-92
2023/05/31 00:50:50;;;;;;;45.05;11.15;;;;;;;;;;6304679;22;20169;-94
2023/05/31 00:53:56;;;;;;;228.52;41.17;;;;;;;;;;6321076;22;20260;-90
2023/05/31 00:57:01;;;;;;;15.73;3.92;;;;;;;;;;6300826;22;20176;-90
2023/05/31 01:00:07;;;;;;;8.25;3.67;;;;;;;;;;6306847;22;20149;-94
2023/05/31 01:03:13;;;;;;;19.08;6.57;;;;;;;;;;6325638;22;20169;-94
2023/05/31 01:06:21;;;;;;;8.05;3.88;;;;;;;;;;6306877;22;20185;-94
2023/05/31 01:09:31;;;;;;;40.70;6.70;;;;;;;;;;6323472;22;20162;-92
2023/05/31 01:12:42;;;;;;;19.67;6.20;;;;;;;;;;6324477;22;20165;-92
2023/05/31 01:15:48;;;;;;;13.30;4.93;;;;;;;;;;6305948;22;20161;-93
2023/05/31 01:18:56;;;;;;;66.78;10.57;;;;;;;;;;6306730;22;20165;-90
2023/05/31 01:22:14;;;;;;;26.95;5.72;;;;;;;;;;6325724;22;20596;-92
2023/05/31 01:25:29;;;;;;;12.10;3.83;;;;;;;;;;6325261;22;20169;-91
2023/05/31 01:29:00;;;;;;;24.27;4.57;;;;;;;;;;6306157;22;20212;-91
2023/05/31 01:32:09;;;;;;;28.23;4.93;;;;;;;;;;6308369;22;20233;-93
2023/05/31 01:35:15;;;;;;;12.30;4.32;;;;;;;;;;6307090;22;20165;-91
2023/05/31 01:38:23;;;;;;;19.25;4.70;;;;;;;;;;6306943;22;20165;-91
2023/05/31 01:41:28;;;;;;;9.75;3.70;;;;;;;;;;6305580;22;20524;-93
2023/05/31 01:44:35;;;;;;;21.15;5.18;;;;;;;;;;6305992;22;20164;-93
2023/05/31 01:47:47;;;;;;;22.50;5.80;;;;;;;;;;6324678;22;20172;-91
2023/05/31 01:50:53;;;;;;;41.17;8.15;;;;;;;;;;6324250;22;20164;-91
2023/05/31 01:53:58;;;;;;;25.55;5.63;;;;;;;;;;6323091;22;20164;-93
2023/05/31 01:57:05;;;;;;;15.73;4.40;;;;;;;;;;6322221;22;20239;-94
2023/05/31 02:00:12;;;;;;;27.60;5.35;;;;;;;;;;6322080;22;20203;-94
2023/05/31 02:03:19;;;;;;;10.25;4.35;;;;;;;;;;6324230;22;20168;-91
2023/05/31 02:06:27;;;;;;;18.25;4.95;;;;;;;;;;6306149;22;20196;-92
2023/05/31 02:09:32;;;;;;;12.73;4.70;;;;;;;;;;6305308;22;20164;-91
2023/05/31 02:12:37;;;;;;;13.77;4.18;;;;;;;;;;6322374;22;20149;-93
2023/05/31 02:15:43;;;;;;;13.55;4.35;;;;;;;;;;6305269;22;20165;-92
2023/05/31 02:18:52;;;;;;;11.48;4.50;;;;;;;;;;6306617;22;20149;-92
2023/05/31 02:22:00;;;;;;;10.75;4.50;;;;;;;;;;6324168;22;20561;-93
2023/05/31 02:25:06;;;;;;;10.57;4.68;;;;;;;;;;6322671;22;20212;-90
2023/05/31 02:33:15;;;;;;;9.18;4.30;;;;;;;;;;6325219;22;20216;-94
2023/05/31 02:36:22;;;;;;;14.13;4.97;;;;;;;;;;6306089;22;20150;-92
2023/05/31 02:39:27;;;;;;;35.60;6.38;;;;;;;;;;6304956;22;20164;-92
2023/05/31 02:42:32;;;;;;;23.70;5.40;;;;;;;;;;6305535;22;20162;-91
2023/05/31 02:45:38;;;;;;;13.43;4.22;;;;;;;;;;6307607;22;20165;-92
2023/05/31 02:48:43;;;;;;;17.67;4.40;;;;;;;;;;6307571;22;20165;-93
2023/05/31 02:51:51;;;;;;;15.07;4.85;;;;;;;;;;6324932;22;20157;-92
2023/05/31 02:55:15;;;;;;;16.50;5.00;;;;;;;;;;6327456;22;20229;-93
2023/05/31 02:58:52;;;;;;;22.60;6.13;;;;;;;;;;6323744;22;20207;-91
2023/05/31 03:02:19;;;;;;;38.60;7.05;;;;;;;;;;6306393;22;20227;-93
2023/05/31 03:05:47;;;;;;;73.65;11.43;;;;;;;;;;6325080;22;20181;-93
2023/05/31 03:08:54;;;;;;;13.45;4.22;;;;;;;;;;6323682;22;20192;-92
2023/05/31 03:12:00;;;;;;;101.57;16.80;;;;;;;;;;6304913;22;20202;-91
2023/05/31 03:15:06;;;;;;;29.83;5.85;;;;;;;;;;6323769;22;20174;-91
2023/05/31 03:18:13;;;;;;;8.82;3.40;;;;;;;;;;6322813;22;20238;-90
2023/05/31 03:21:20;;;;;;;10.15;3.47;;;;;;;;;;6324393;22;20172;-90
2023/05/31 03:24:50;;;;;;;10.20;4.13;;;;;;;;;;6289574;22;20165;-89
2023/05/31 03:28:23;;;;;;;13.63;4.32;;;;;;;;;;6305926;22;20191;-91
2023/05/31 03:31:32;;;;;;;29.35;5.40;;;;;;;;;;6324091;22;20211;-91
2023/05/31 03:34:37;;;;;;;14.40;3.90;;;;;;;;;;6305002;22;20161;-91
2023/05/31 03:37:42;;;;;;;11.98;4.18;;;;;;;;;;6306378;22;20153;-92
2023/05/31 03:40:50;;;;;;;18.38;4.55;;;;;;;;;;6305049;22;20149;-91
2023/05/31 03:43:56;;;;;;;9.40;3.50;;;;;;;;;;6324718;22;20169;-93
2023/05/31 03:47:03;;;;;;;8.02;3.53;;;;;;;;;;6305959;22;20212;-92
2023/05/31 03:50:08;;;;;;;18.25;4.15;;;;;;;;;;6306755;22;20165;-91
2023/05/31 03:53:14;;;;;;;14.38;4.18;;;;;;;;;;6326133;22;20165;-93
2023/05/31 03:56:20;;;;;;;636.20;92.95;;;;;;;;;;6293204;22;20188;-90
2023/05/31 03:59:26;;;;;;;7.97;3.40;;;;;;;;;;6293848;22;20162;-91
2023/05/31 04:03:13;;;;;;;225.82;20.02;;;;;;;;;;6290407;22;20166;-92
2023/05/31 04:07:03;;;;;;;11.45;3.28;;;;;;;;;;6291156;22;20165;-91
2023/05/31 04:10:10;;;;;;;10.63;2.90;;;;;;;;;;6292344;22;20192;-94
2023/05/31 04:13:15;;;;;;;7.72;3.10;;;;;;;;;;6290855;22;20162;-92
2023/05/31 04:16:20;;;;;;;8.15;3.03;;;;;;;;;;6291939;22;20172;-94
2023/05/31 04:19:29;;;;;;;8.73;3.80;;;;;;;;;;6290913;22;20244;-92
2023/05/31 04:22:35;;;;;;;11.88;3.90;;;;;;;;;;6291533;22;20169;-93
2023/05/31 04:25:44;;;;;;;15.13;4.32;;;;;;;;;;6292110;22;20169;-92
2023/05/31 04:32:27;;;;;;;9.23;3.50;;;;;;;;;;6292583;22;20190;-92
2023/05/31 04:35:33;;;;;;;9.52;3.90;;;;;;;;;;6290412;22;20169;-89
2023/05/31 04:38:39;;;;;;;9.85;4.30;;;;;;;;;;6290398;22;20226;-92
2023/05/31 04:41:47;;;;;;;10.32;4.30;;;;;;;;;;6289376;22;20169;-89
2023/05/31 04:44:55;;;;;;;17.15;4.28;;;;;;;;;;6290349;22;20165;-89
2023/05/31 04:48:00;;;;;;;10.23;4.10;;;;;;;;;;6290512;22;20197;-91
2023/05/31 04:51:07;;;;;;;13.93;4.45;;;;;;;;;;6292794;22;20215;-89
2023/05/31 04:54:13;;;;;;;12.18;3.75;;;;;;;;;;6293117;22;20211;-93
2023/05/31 04:57:19;;;;;;;6.00;3.33;;;;;;;;;;6294209;22;20212;-93
2023/05/31 05:00:26;;;;;;;13.23;3.90;;;;;;;;;;6292842;22;20169;-90
2023/05/31 05:03:42;;;;;;;8.65;3.72;;;;;;;;;;6293064;22;20166;-90
2023/05/31 05:06:47;;;;;;;15.32;3.83;;;;;;;;;;6295130;22;20186;-89
2023/05/31 05:09:53;;;;;;;16.90;3.60;;;;;;;;;;6295551;22;20211;-90
2023/05/31 05:13:00;;;;;;;11.88;3.80;;;;;;;;;;6295719;22;20185;-92
2023/05/31 05:16:05;;;;;;;7.15;3.28;;;;;;;;;;6295984;22;20165;-91
2023/05/31 05:19:11;;;;;;;9.88;4.07;;;;;;;;;;6293079;22;20225;-91
2023/05/31 05:22:20;;;;;;;8.25;3.20;;;;;;;;;;6294356;22;20170;-91
2023/05/31 05:25:26;;;;;;;12.30;3.13;;;;;;;;;;6295854;22;20173;-92
2023/05/31 05:28:33;;;;;;;12.73;3.00;;;;;;;;;;6296067;22;20649;-92
2023/05/31 05:31:39;;;;;;;12.55;3.65;;;;;;;;;;6293617;22;20166;-92
2023/05/31 05:34:47;;;;;;;10.20;3.13;;;;;;;;;;6296121;22;20663;-90
2023/05/31 05:37:53;;;;;;;14.73;4.18;;;;;;;;;;6297539;22;20276;-91
2023/05/31 05:40:58;;;;;;;10.00;3.03;;;;;;;;;;6296537;22;20201;-94
2023/05/31 05:44:05;;;;;;;6.95;3.35;;;;;;;;;;6295142;22;20165;-91
2023/05/31 05:47:15;;;;;;;14.40;3.53;;;;;;;;;;6295402;22;20229;-92
2023/05/31 05:50:21;;;;;;;7.47;3.05;;;;;;;;;;6293394;22;20166;-91
2023/05/31 05:56:47;;;;;;;24.10;3.63;;;;;;;;;;6292049;22;20296;-92
2023/05/31 05:59:54;;;;;;;15.02;3.83;;;;;;;;;;6294593;22;20150;-91
2023/05/31 19:58:42;;;;;;;13.13;4.68;;;;;;;;;;6264877;22;20165;-94
2023/05/31 20:01:48;;;;;;;10.45;4.53;;;;;;;;;;6242786;23;20181;-89
2023/05/31 20:04:54;;;;;;;309.35;167.15;;;;;;;;;;6244650;23;20267;-92
2023/05/31 20:07:59;;;;;;;12.65;5.18;;;;;;;;;;6244226;22;20213;-92
2023/05/31 20:11:06;;;;;;;1999.90;891.72;;;;;;;;;;6245130;22;20217;-92
2023/05/31 20:14:15;;;;;;;1385.70;641.33;;;;;;;;;;6248187;23;20628;-91
2023/05/31 20:22:03;;;;;;;826.63;299.25;;;;;;;;;;6268219;22;20158;-95
2023/05/31 20:25:11;;;;;;;628.22;302.33;;;;;;;;;;6250221;23;20215;-94
2023/05/31 20:28:43;;;;;;;19.20;9.23;;;;;;;;;;6249773;22;20234;-92
2023/05/31 20:32:01;;;;;;;805.95;483.38;;;;;;;;;;6253086;22;20169;-94
2023/05/31 20:35:09;;;;;;;363.55;191.77;;;;;;;;;;6250740;23;20210;-93
2023/05/31 20:41:38;;;;;;;17.60;7.13;;;;;;;;;;6252009;22;20145;-92
2023/05/31 20:51:28;;;;;;;19.77;6.82;;;;;;;;;;6249706;22;20183;-95
2023/05/31 20:54:34;;;;;;;163.38;83.93;;;;;;;;;;6250004;22;20163;-93
2023/05/31 20:57:40;;;;;;;55.53;20.08;;;;;;;;;;6248567;23;20189;-93
2023/05/31 21:00:45;;;;;;;62.00;29.55;;;;;;;;;;6249168;22;20154;-93
2023/05/31 21:03:59;;;;;;;46.83;24.50;;;;;;;;;;6249699;22;20165;-93
2023/05/31 21:07:06;;;;;;;37.58;15.25;;;;;;;;;;6250263;22;20178;-95
2023/05/31 21:10:16;;;;;;;28.90;11.20;;;;;;;;;;6249760;22;20237;-95
2023/05/31 21:13:22;;;;;;;41.30;14.93;;;;;;;;;;6249664;22;20162;-95
2023/05/31 21:16:28;;;;;;;26.20;11.05;;;;;;;;;;6250238;23;20170;-93
